Saigon Express — VRBT7 — position and weather

sailwx.info

Track history (hours):
 
Tides and Currents Weather Stations Pressure Air Temp Water Temp Dewpoint Dewpoint Depression Visibility Wind Speed Wind Dir Waves Ship Positions

Saigon Express

Last reported at 2015-Feb-26 17:33 UTC. Time now 2015-Mar-03 22:41 UTC.
Position N 36°20' E 014°34'.

Length 260 m; draft 12.2 m.

Type: Ship (hazmat cat A). MMSI: 477106800.

Date/timePositionNaut miles runAvg speedWind from/ knotsBaromVisibWave heightAir tempDewpointWater temp
2015-Feb-26 17:33N 36°20' E 014°34'1818.5
2015-Feb-26 16:33N 36°26' E 014°13'2218.2
2015-Feb-26 15:22N 36°33' E 013°47'92017.8
2015-Feb-24 11:33N 36°00' W 005°13'81118.4
2015-Feb-22 15:33N 36°25' W 021°58'1818.4
2015-Feb-22 14:34N 36°25' W 022°20'2018.1
2015-Feb-22 13:28N 36°23' W 022°45'1718.7
2015-Feb-22 12:33N 36°22' W 023°06'1918.7
2015-Feb-22 11:33N 36°22' W 023°29'1918.8
2015-Feb-22 10:33N 36°21' W 023°52'1918.9
2015-Feb-22 09:33N 36°20' W 024°16'1919.1
2015-Feb-22 08:33N 36°19' W 024°39'1918.6
2015-Feb-22 07:34N 36°18' W 025°02'1818.3
2015-Feb-22 06:33N 36°15' W 025°25'1818.2
2015-Feb-22 05:33N 36°12' W 025°47'1818.3
2015-Feb-22 04:34N 36°09' W 026°09'1918.7
2015-Feb-22 03:33N 36°06' W 026°32'1918.7
2015-Feb-22 02:33N 36°03' W 026°55'1818.4
2015-Feb-22 01:34N 35°60' W 027°17'1818.1
2015-Feb-22 00:33N 35°57' W 027°40'1918.1
2015-Feb-21 23:32N 35°54' W 028°02'1717.9
2015-Feb-21 22:33N 35°51' W 028°24'1817.7
2015-Feb-21 21:33N 35°48' W 028°45'1918.0
2015-Feb-21 20:30N 35°45' W 029°08'1717.8
2015-Feb-21 19:33N 35°42' W 029°29'1817.9
2015-Feb-21 18:33N 35°40' W 029°50'  
Track history (hours):
 
Tides and Currents Weather Stations Pressure Air Temp Water Temp Dewpoint Dewpoint Depression Visibility Wind Speed Wind Dir Waves Ship Positions

Saigon Express

Last reported at 2015-Feb-26 17:33 UTC. Time now 2015-Mar-03 22:41 UTC.
Position N 36°20' E 014°34'.

Length 260 m; draft 12.2 m.

Type: Ship (hazmat cat A). MMSI: 477106800.

Date/timePositionNaut miles runAvg speedWind from/ knotsBaromVisibWave heightAir tempDewpointWater temp
2015-Feb-26 17:33N 36°20' E 014°34'1818.5
2015-Feb-26 16:33N 36°26' E 014°13'2218.2
2015-Feb-26 15:22N 36°33' E 013°47'92017.8
2015-Feb-24 11:33N 36°00' W 005°13'81118.4
2015-Feb-22 15:33N 36°25' W 021°58'1818.4
2015-Feb-22 14:34N 36°25' W 022°20'2018.1
2015-Feb-22 13:28N 36°23' W 022°45'1718.7
2015-Feb-22 12:33N 36°22' W 023°06'1918.7
2015-Feb-22 11:33N 36°22' W 023°29'1918.8
2015-Feb-22 10:33N 36°21' W 023°52'1918.9
2015-Feb-22 09:33N 36°20' W 024°16'1919.1
2015-Feb-22 08:33N 36°19' W 024°39'1918.6
2015-Feb-22 07:34N 36°18' W 025°02'1818.3
2015-Feb-22 06:33N 36°15' W 025°25'1818.2
2015-Feb-22 05:33N 36°12' W 025°47'1818.3
2015-Feb-22 04:34N 36°09' W 026°09'1918.7
2015-Feb-22 03:33N 36°06' W 026°32'1918.7
2015-Feb-22 02:33N 36°03' W 026°55'1818.4
2015-Feb-22 01:34N 35°60' W 027°17'1818.1
2015-Feb-22 00:33N 35°57' W 027°40'1918.1
2015-Feb-21 23:32N 35°54' W 028°02'1717.9
2015-Feb-21 22:33N 35°51' W 028°24'1817.7
2015-Feb-21 21:33N 35°48' W 028°45'1918.0
2015-Feb-21 20:30N 35°45' W 029°08'1717.8
2015-Feb-21 19:33N 35°42' W 029°29'1817.9
2015-Feb-21 18:33N 35°40' W 029°50'  

Dump ship's entire track history